createdAt,value
2023-04-25T00:00:20.526Z,7.27
2023-04-25T00:02:48.094Z,10.20
2023-04-25T00:05:16.557Z,9.50
2023-04-25T00:07:44.001Z,9.23
2023-04-25T00:10:12.103Z,6.67
2023-04-25T00:12:40.687Z,8.40
2023-04-25T00:15:09.847Z,5.27
2023-04-25T00:17:38.627Z,10.30
2023-04-25T00:20:09.516Z,10.30
2023-04-25T00:22:37.816Z,10.20
2023-04-25T00:25:06.480Z,10.70
2023-04-25T00:27:33.888Z,7.20
2023-04-25T00:30:01.774Z,9.70
2023-04-25T00:32:28.995Z,7.43
2023-04-25T00:34:57.917Z,7.70
2023-04-25T00:37:25.314Z,10.43
2023-04-25T00:39:53.908Z,7.77
2023-04-25T00:42:21.356Z,7.60
2023-04-25T00:44:49.358Z,13.00
2023-04-25T00:47:17.641Z,6.80
2023-04-25T00:49:45.611Z,7.83
2023-04-25T00:52:13.094Z,9.07
2023-04-25T00:54:40.426Z,6.03
2023-04-25T00:57:07.764Z,10.30
2023-04-25T00:59:36.563Z,7.27
2023-04-25T01:02:05.095Z,9.20
2023-04-25T01:04:33.128Z,7.10
2023-04-25T01:07:00.527Z,8.03
2023-04-25T01:09:28.346Z,8.20
2023-04-25T01:11:55.718Z,7.17
2023-04-25T01:14:23.003Z,11.20
2023-04-25T01:16:50.435Z,7.20
2023-04-25T01:19:18.797Z,7.87
2023-04-25T01:21:46.918Z,12.57
2023-04-25T01:24:14.465Z,10.90
2023-04-25T01:26:49.692Z,9.27
2023-04-25T01:29:17.611Z,10.80
2023-04-25T01:31:45.594Z,8.17
2023-04-25T01:34:13.108Z,12.20
2023-04-25T01:36:40.815Z,7.07
2023-04-25T01:39:09.066Z,9.33
2023-04-25T01:41:36.887Z,10.47
2023-04-25T01:44:04.838Z,9.30
2023-04-25T01:46:34.306Z,9.67
2023-04-25T01:49:02.004Z,10.80
2023-04-25T01:51:29.409Z,9.53
2023-04-25T01:53:58.374Z,10.40
2023-04-25T01:56:30.719Z,8.17
2023-04-25T01:58:58.411Z,18.60
2023-04-25T02:01:25.752Z,15.60
2023-04-25T02:03:53.649Z,10.73
2023-04-25T02:06:21.261Z,9.63
2023-04-25T02:08:48.546Z,9.83
2023-04-25T02:11:15.854Z,10.50
2023-04-25T02:13:43.721Z,10.50
2023-04-25T02:16:11.293Z,7.80
2023-04-25T02:18:39.417Z,7.00
2023-04-25T02:21:06.770Z,9.20
2023-04-25T02:23:34.210Z,10.90
2023-04-25T02:26:01.572Z,12.80
2023-04-25T02:28:28.904Z,11.63
2023-04-25T02:30:56.855Z,12.67
2023-04-25T02:33:24.104Z,13.07
2023-04-25T02:35:51.382Z,16.60
2023-04-25T02:38:18.670Z,12.37
2023-04-25T02:40:46.024Z,18.97
2023-04-25T02:43:13.396Z,8.80
2023-04-25T02:45:40.647Z,12.00
2023-04-25T02:48:08.751Z,10.43
2023-04-25T02:50:36.118Z,10.33
2023-04-25T02:53:03.380Z,8.67
2023-04-25T02:55:30.685Z,17.90
2023-04-25T02:57:57.901Z,10.87
2023-04-25T03:00:25.389Z,9.80
2023-04-25T03:02:52.746Z,12.60
2023-04-25T03:05:20.846Z,29.23
2023-04-25T03:07:48.115Z,10.27
2023-04-25T03:10:15.447Z,19.30
2023-04-25T03:12:42.710Z,12.70
2023-04-25T03:15:10.544Z,22.60
2023-04-25T03:17:37.897Z,14.87
2023-04-25T03:20:08.572Z,10.13
2023-04-25T03:22:36.513Z,12.23
2023-04-25T03:25:04.344Z,12.13
2023-04-25T03:27:31.646Z,12.33
2023-04-25T03:29:58.981Z,16.10
2023-04-25T03:32:26.263Z,14.73
2023-04-25T03:34:53.515Z,19.57
2023-04-25T03:37:21.008Z,7.97
2023-04-25T03:39:49.015Z,14.17
2023-04-25T03:42:16.237Z,14.63
2023-04-25T03:44:43.646Z,11.87
2023-04-25T03:47:10.918Z,10.30
2023-04-25T03:49:38.182Z,26.00
2023-04-25T03:52:05.946Z,18.83
2023-04-25T03:54:33.274Z,15.90
2023-04-25T03:57:01.253Z,20.73
2023-04-25T03:59:28.572Z,21.00
2023-04-25T04:01:56.034Z,20.57
2023-04-25T04:04:23.576Z,127.60
2023-04-25T04:06:52.760Z,128.67
2023-04-25T04:09:20.747Z,54.60
2023-04-25T04:11:48.058Z,117.80
2023-04-25T04:14:15.945Z,75.33
2023-04-25T04:16:43.547Z,61.20
2023-04-25T04:19:10.885Z,37.70
2023-04-25T04:21:38.236Z,19.60
2023-04-25T04:24:06.576Z,21.40
2023-04-25T04:26:34.709Z,22.27
2023-04-25T04:29:01.942Z,12.97
2023-04-25T04:31:30.362Z,12.47
2023-04-25T04:33:57.714Z,30.93
2023-04-25T04:36:26.761Z,10.10
2023-04-25T04:38:54.287Z,11.93
2023-04-25T04:41:21.734Z,28.33
2023-04-25T04:43:49.292Z,25.50
2023-04-25T04:46:16.755Z,12.80
2023-04-25T04:48:44.808Z,8.53
2023-04-25T04:51:12.011Z,12.83
2023-04-25T04:53:39.220Z,9.20
2023-04-25T04:56:06.993Z,17.00
2023-04-25T04:58:35.490Z,10.33
2023-04-25T05:01:02.900Z,11.07
2023-04-25T05:03:30.406Z,9.33
2023-04-25T05:05:58.489Z,11.67
2023-04-25T05:08:25.733Z,13.30
2023-04-25T05:10:53.041Z,9.23
2023-04-25T05:13:20.334Z,20.80
2023-04-25T05:15:47.784Z,11.33
2023-04-25T05:18:15.518Z,13.47
2023-04-25T05:20:42.903Z,11.83
2023-04-25T05:23:11.290Z,10.17
2023-04-25T05:25:38.571Z,9.30
2023-04-25T05:28:06.278Z,11.83
2023-04-25T05:30:34.499Z,7.50
2023-04-25T05:33:01.901Z,10.20
2023-04-25T05:35:29.267Z,8.87
2023-04-25T05:37:56.651Z,13.27
2023-04-25T05:40:24.721Z,7.80
2023-04-25T05:42:52.015Z,9.00
2023-04-25T05:45:19.279Z,9.53
2023-04-25T05:47:46.664Z,11.67
2023-04-25T05:50:13.905Z,8.30
2023-04-25T05:52:41.145Z,6.57
2023-04-25T05:55:09.241Z,5.50
2023-04-25T05:57:37.185Z,12.20
2023-04-25T06:00:09.284Z,11.23
2023-04-25T06:02:36.677Z,10.90
2023-04-25T06:05:04.749Z,9.30
2023-04-25T06:07:32.226Z,10.30
2023-04-25T06:10:00.383Z,9.97
2023-04-25T06:12:27.604Z,13.87
2023-04-25T06:14:55.657Z,10.53
2023-04-25T06:17:22.917Z,14.93
2023-04-25T06:19:50.134Z,18.93
2023-04-25T06:22:17.343Z,9.50
2023-04-25T06:24:44.753Z,12.30
2023-04-25T06:27:12.099Z,10.53
2023-04-25T06:29:39.408Z,7.23
2023-04-25T06:32:07.629Z,6.53
2023-04-25T06:34:34.864Z,11.83
2023-04-25T06:37:02.219Z,6.73
2023-04-25T06:39:29.532Z,10.10
2023-04-25T06:41:56.741Z,14.40
2023-04-25T06:44:24.374Z,14.00
2023-04-25T06:46:51.701Z,16.00
2023-04-25T06:49:19.873Z,13.50
2023-04-25T06:51:47.174Z,17.90
2023-04-25T06:54:14.433Z,15.17
2023-04-25T06:56:41.949Z,9.57
2023-04-25T06:59:09.439Z,9.40
2023-04-25T07:01:36.917Z,6.40
2023-04-25T07:04:04.605Z,9.47
2023-04-25T07:06:32.762Z,13.60
2023-04-25T07:09:00.068Z,9.80
2023-04-25T07:11:27.334Z,9.13
2023-04-25T07:13:54.617Z,13.17
2023-04-25T07:16:22.248Z,12.37
2023-04-25T07:18:49.730Z,14.43
2023-04-25T07:21:17.136Z,9.13
2023-04-25T07:23:45.155Z,16.83
2023-04-25T07:26:12.540Z,9.70
2023-04-25T07:28:39.980Z,11.33
2023-04-25T07:31:07.279Z,11.43
2023-04-25T07:33:35.340Z,12.97
2023-04-25T07:36:02.699Z,13.47
2023-04-25T07:38:30.167Z,10.33
2023-04-25T07:40:58.104Z,14.10
2023-04-25T07:43:25.382Z,10.87
2023-04-25T07:45:52.775Z,9.17
2023-04-25T07:48:20.378Z,10.70
2023-04-25T07:50:47.668Z,9.77
2023-04-25T07:53:16.560Z,7.70
2023-04-25T07:55:44.045Z,20.30
2023-04-25T07:58:15.650Z,11.20
2023-04-25T08:00:45.739Z,8.00
2023-04-25T08:03:13.292Z,9.90
2023-04-25T08:05:40.893Z,10.10
2023-04-25T08:08:11.201Z,14.23
2023-04-25T08:10:39.654Z,8.43
2023-04-25T08:13:06.953Z,8.83
2023-04-25T08:15:36.296Z,8.03
2023-04-25T08:18:06.415Z,12.73
2023-04-25T08:20:33.951Z,8.80
2023-04-25T08:23:01.315Z,10.07
2023-04-25T08:25:35.008Z,34.57
2023-04-25T08:28:03.324Z,7.93
2023-04-25T08:30:30.837Z,10.73
2023-04-25T08:32:59.116Z,9.17
2023-04-25T08:35:26.741Z,8.70
2023-04-25T08:37:53.951Z,11.20
2023-04-25T08:40:26.454Z,9.97
2023-04-25T08:42:55.550Z,7.13
2023-04-25T08:45:23.243Z,6.83
2023-04-25T08:47:53.540Z,5.60
2023-04-25T08:50:23.092Z,7.00
2023-04-25T08:52:53.745Z,10.13
2023-04-25T08:55:22.488Z,14.10
2023-04-25T08:57:50.669Z,5.00
2023-04-25T09:00:19.262Z,4.43
2023-04-25T09:02:47.610Z,10.30
2023-04-25T09:05:15.351Z,17.93
2023-04-25T09:07:43.525Z,5.40
2023-04-25T09:10:11.067Z,13.20
2023-04-25T09:12:38.331Z,10.30
2023-04-25T09:15:08.202Z,10.00
2023-04-25T09:17:35.629Z,5.20
2023-04-25T09:20:10.890Z,2.83
2023-04-25T09:22:39.146Z,6.37
2023-04-25T09:25:10.932Z,14.13
2023-04-25T09:27:49.478Z,5.40
2023-04-25T09:30:17.675Z,5.87
2023-04-25T09:32:45.601Z,5.13
2023-04-25T09:35:25.975Z,11.57
2023-04-25T09:37:53.237Z,6.80
2023-04-25T09:40:21.343Z,4.50
2023-04-25T09:42:48.577Z,7.00
2023-04-25T09:45:15.832Z,8.87
2023-04-25T09:47:44.305Z,8.70
2023-04-25T09:50:16.573Z,5.20
2023-04-25T09:52:43.877Z,5.90
2023-04-25T09:55:11.751Z,5.00
2023-04-25T09:57:40.160Z,10.93
2023-04-25T10:00:12.543Z,7.83
2023-04-25T10:02:42.230Z,10.70
2023-04-25T10:05:10.865Z,8.90
2023-04-25T10:07:39.489Z,7.90
2023-04-25T10:10:07.810Z,9.70
2023-04-25T10:12:35.389Z,12.87
2023-04-25T10:15:04.781Z,11.80
2023-04-25T10:17:33.645Z,9.17
2023-04-25T10:20:04.122Z,9.50
2023-04-25T10:22:35.123Z,6.83
2023-04-25T10:25:04.175Z,12.27
2023-04-25T10:27:31.902Z,14.53
2023-04-25T10:30:04.886Z,8.77
2023-04-25T10:32:33.062Z,5.90
2023-04-25T10:35:12.049Z,8.80
2023-04-25T10:37:40.750Z,11.93
2023-04-25T10:40:11.844Z,7.60
2023-04-25T10:42:41.397Z,12.30
2023-04-25T10:45:10.607Z,10.53
2023-04-25T10:47:44.985Z,5.57
2023-04-25T10:50:14.969Z,7.63
2023-04-25T10:52:42.447Z,7.13
2023-04-25T10:55:10.172Z,4.20
2023-04-25T10:57:42.136Z,7.83
2023-04-25T11:00:13.242Z,5.87
2023-04-25T11:02:48.061Z,1.30
2023-04-25T11:05:27.140Z,2.00
2023-04-25T11:08:06.295Z,2.10
2023-04-25T11:10:35.889Z,1.83
2023-04-25T11:15:46.023Z,7.03
2023-04-25T11:18:21.011Z,5.00
2023-04-25T11:20:50.053Z,6.00
2023-04-25T11:23:17.448Z,4.00
2023-04-25T11:25:45.711Z,4.53
2023-04-25T11:28:12.971Z,3.43
2023-04-25T11:30:40.503Z,7.50
2023-04-25T11:33:10.151Z,4.50
2023-04-25T11:35:37.535Z,4.70
2023-04-25T11:38:04.886Z,2.27
2023-04-25T11:40:32.577Z,10.27
2023-04-25T11:43:02.016Z,11.37
2023-04-25T11:45:30.978Z,4.23
2023-04-25T11:47:58.252Z,7.63
2023-04-25T11:50:28.841Z,9.80
2023-04-25T11:52:57.971Z,12.37
2023-04-25T11:55:25.351Z,5.10
2023-04-25T11:57:52.574Z,11.13
2023-04-25T12:00:21.839Z,10.77
2023-04-25T12:02:52.265Z,15.73
2023-04-25T12:05:32.029Z,6.27
2023-04-25T12:08:14.889Z,5.10
2023-04-25T12:10:43.295Z,11.90
2023-04-25T12:13:21.786Z,11.03
2023-04-25T12:15:49.539Z,14.30
2023-04-25T12:18:19.517Z,11.07
2023-04-25T12:20:53.057Z,7.30
2023-04-25T12:23:28.197Z,10.07
2023-04-25T12:25:56.216Z,5.47
2023-04-25T12:28:24.894Z,17.40
2023-04-25T12:30:57.830Z,11.97
2023-04-25T12:33:26.371Z,7.57
2023-04-25T12:35:54.048Z,10.37
2023-04-25T12:38:26.222Z,22.53
2023-04-25T12:41:03.484Z,11.73
2023-04-25T12:43:31.042Z,9.27
2023-04-25T12:45:58.299Z,10.23
2023-04-25T12:48:25.571Z,10.07
2023-04-25T12:50:53.456Z,18.70
2023-04-25T12:53:21.757Z,8.43
2023-04-25T12:55:50.163Z,14.53
2023-04-25T12:58:18.464Z,20.17
2023-04-25T13:00:46.335Z,10.13
2023-04-25T13:03:13.922Z,11.73
2023-04-25T13:05:41.687Z,8.93
2023-04-25T13:08:09.052Z,17.57
2023-04-25T13:10:37.291Z,9.07
2023-04-25T13:13:05.285Z,16.10
2023-04-25T13:15:32.684Z,18.33
2023-04-25T13:18:00.061Z,9.07
2023-04-25T13:20:27.447Z,16.33
2023-04-25T13:22:55.497Z,11.60
2023-04-25T13:25:22.865Z,15.30
2023-04-25T13:27:50.281Z,12.97
2023-04-25T13:30:18.486Z,17.20
2023-04-25T13:32:45.942Z,14.97
2023-04-25T13:35:15.472Z,10.03
2023-04-25T13:37:42.768Z,15.83
2023-04-25T13:40:11.534Z,7.97
2023-04-25T13:42:39.535Z,12.67
2023-04-25T13:45:07.991Z,8.90
2023-04-25T13:47:36.580Z,13.17
2023-04-25T13:50:05.805Z,16.60
2023-04-25T13:52:34.288Z,18.80
2023-04-25T13:55:03.728Z,8.17
2023-04-25T13:57:32.026Z,19.80
2023-04-25T13:59:59.529Z,9.53
2023-04-25T14:02:27.056Z,14.20
2023-04-25T14:04:55.080Z,13.00
2023-04-25T14:07:22.412Z,8.60
2023-04-25T14:09:49.870Z,7.23
2023-04-25T14:12:18.249Z,14.33
2023-04-25T14:14:45.616Z,7.70
2023-04-25T14:17:12.848Z,11.23
2023-04-25T14:19:43.532Z,18.03
2023-04-25T14:22:11.703Z,5.00
2023-04-25T14:24:39.002Z,6.40
2023-04-25T14:27:06.346Z,9.47
2023-04-25T14:29:33.756Z,11.73
2023-04-25T14:32:01.003Z,11.00
2023-04-25T14:34:28.267Z,8.83
2023-04-25T14:36:55.521Z,8.33
2023-04-25T14:39:23.486Z,11.33
2023-04-25T14:41:50.702Z,6.37
2023-04-25T14:44:17.935Z,5.67
2023-04-25T14:46:45.149Z,13.13
2023-04-25T14:49:12.577Z,13.73
2023-04-25T14:51:40.142Z,10.27
2023-04-25T14:54:07.977Z,7.77
2023-04-25T14:56:35.992Z,6.60
2023-04-25T14:59:03.299Z,10.50
2023-04-25T15:01:30.706Z,14.40
2023-04-25T15:03:58.452Z,4.60
2023-04-25T15:06:28.981Z,9.60
2023-04-25T15:08:57.225Z,7.33
2023-04-25T15:11:24.537Z,5.83
2023-04-25T15:13:52.968Z,12.93
2023-04-25T15:16:20.676Z,10.33
2023-04-25T15:18:47.996Z,4.03
2023-04-25T15:21:15.290Z,7.00
2023-04-25T15:23:42.575Z,7.17
2023-04-25T15:26:09.833Z,13.03
2023-04-25T15:28:37.113Z,3.43
2023-04-25T15:31:05.103Z,11.27
2023-04-25T15:33:32.629Z,9.77
2023-04-25T15:35:59.998Z,5.60
2023-04-25T15:38:27.184Z,8.80
2023-04-25T15:40:54.429Z,4.63
2023-04-25T15:43:21.681Z,14.43
2023-04-25T15:45:49.132Z,8.73
2023-04-25T15:48:17.120Z,5.83
2023-04-25T15:50:44.415Z,10.50
2023-04-25T15:53:11.810Z,4.60
2023-04-25T15:55:39.082Z,10.23
2023-04-25T15:58:06.337Z,7.67
2023-04-25T16:00:35.460Z,4.80
2023-04-25T16:03:03.215Z,3.07
2023-04-25T16:05:31.924Z,8.83
2023-04-25T16:07:59.573Z,5.23
2023-04-25T16:10:27.120Z,7.50
2023-04-25T16:12:54.365Z,3.80
2023-04-25T16:15:21.673Z,5.80
2023-04-25T16:17:48.925Z,4.53
2023-04-25T16:20:16.814Z,5.40
2023-04-25T16:22:45.189Z,6.90
2023-04-25T16:25:12.463Z,3.30
2023-04-25T16:27:40.022Z,5.33
2023-04-25T16:30:09.290Z,3.27
2023-04-25T16:32:37.213Z,5.53
2023-04-25T16:35:04.891Z,7.20
2023-04-25T16:37:32.189Z,6.10
2023-04-25T16:40:00.310Z,7.40
2023-04-25T16:42:27.583Z,7.17
2023-04-25T16:44:54.832Z,7.27
2023-04-25T16:47:22.468Z,5.90
2023-04-25T16:49:50.083Z,15.03
2023-04-25T16:52:17.283Z,7.20
2023-04-25T16:54:45.366Z,25.67
2023-04-25T16:57:13.935Z,9.50
2023-04-25T16:59:41.338Z,13.10
2023-04-25T17:02:12.110Z,3.47
2023-04-25T17:04:39.711Z,6.17
2023-04-25T17:07:07.603Z,2.40
2023-04-25T17:09:35.434Z,9.47
2023-04-25T17:12:03.492Z,7.50
2023-04-25T17:14:32.436Z,3.87
2023-04-25T17:17:00.282Z,4.43
2023-04-25T17:19:27.999Z,7.00
2023-04-25T17:21:55.662Z,4.27
2023-04-25T17:24:22.889Z,4.30
2023-04-25T17:26:50.228Z,3.33
2023-04-25T17:29:18.380Z,11.53
2023-04-25T17:31:46.312Z,5.77
2023-04-25T17:34:17.171Z,5.63
2023-04-25T17:36:44.508Z,4.73
2023-04-25T17:39:14.007Z,6.67
2023-04-25T17:41:41.370Z,5.63
2023-04-25T17:44:08.768Z,4.43
2023-04-25T17:46:36.801Z,15.53
2023-04-25T17:49:05.438Z,6.40
2023-04-25T17:51:32.789Z,3.83
2023-04-25T17:54:00.145Z,6.57
2023-04-25T17:56:27.894Z,11.60
2023-04-25T17:58:55.692Z,6.97
2023-04-25T18:01:23.400Z,8.70
2023-04-25T18:03:51.162Z,8.23
2023-04-25T18:06:19.338Z,4.97
2023-04-25T18:08:46.907Z,9.77
2023-04-25T18:11:14.177Z,5.90
2023-04-25T18:13:42.456Z,10.00
2023-04-25T18:16:09.747Z,7.40
2023-04-25T18:18:37.327Z,7.13
2023-04-25T18:21:07.014Z,6.13
2023-04-25T18:23:35.221Z,14.40
2023-04-25T18:26:03.599Z,8.47
2023-04-25T18:28:30.898Z,6.03
2023-04-25T18:30:58.127Z,7.13
2023-04-25T18:33:25.491Z,6.80
2023-04-25T18:38:35.019Z,5.37
2023-04-25T18:41:23.967Z,8.13
2023-04-25T18:43:51.727Z,12.83
2023-04-25T18:46:21.661Z,7.73
2023-04-25T18:48:49.765Z,12.40
2023-04-25T18:51:17.621Z,4.13
2023-04-25T18:53:45.462Z,7.03
2023-04-25T18:56:14.548Z,4.87
2023-04-25T18:58:42.094Z,6.17
2023-04-25T19:01:09.785Z,6.67
2023-04-25T19:03:37.398Z,9.90
2023-04-25T19:06:05.271Z,3.13
2023-04-25T19:08:32.591Z,8.67
2023-04-25T19:11:07.546Z,4.37
2023-04-25T19:13:42.379Z,6.43
2023-04-25T19:16:09.737Z,3.00
2023-04-25T19:18:37.001Z,8.17
2023-04-25T19:21:05.996Z,8.70
2023-04-25T19:23:33.273Z,7.20
2023-04-25T19:26:00.575Z,8.57
2023-04-25T19:28:29.105Z,7.43
2023-04-25T19:30:58.687Z,6.20
2023-04-25T19:33:26.067Z,6.10
2023-04-25T19:35:53.397Z,5.00
2023-04-25T19:38:20.662Z,7.43
2023-04-25T19:40:48.437Z,5.90
2023-04-25T19:43:15.785Z,5.93
2023-04-25T19:45:43.072Z,7.77
2023-04-25T19:48:13.294Z,9.60
2023-04-25T19:50:40.923Z,8.40
2023-04-25T19:53:08.802Z,10.50
2023-04-25T19:55:36.230Z,6.00
2023-04-25T19:58:03.735Z,4.67
2023-04-25T20:00:31.000Z,5.80
2023-04-25T20:02:58.432Z,8.27
2023-04-25T20:05:26.712Z,4.37
2023-04-25T20:07:54.022Z,4.57
2023-04-25T20:10:21.592Z,7.60
2023-04-25T20:12:48.929Z,6.67
2023-04-25T20:15:18.144Z,8.47
2023-04-25T20:17:45.724Z,13.60
2023-04-25T20:20:13.317Z,5.70
2023-04-25T20:22:41.438Z,6.43
2023-04-25T20:25:11.424Z,3.57
2023-04-25T20:27:38.897Z,8.73
2023-04-25T20:30:08.011Z,9.53
2023-04-25T20:32:36.039Z,12.60
2023-04-25T20:35:04.315Z,3.60
2023-04-25T20:37:31.578Z,7.53
2023-04-25T20:40:00.181Z,5.60
2023-04-25T20:42:27.451Z,5.53
2023-04-25T20:44:55.212Z,5.27
2023-04-25T20:47:24.152Z,6.30
2023-04-25T20:49:51.596Z,6.63
2023-04-25T20:52:20.956Z,6.23
2023-04-25T20:54:53.037Z,8.03
2023-04-25T20:57:20.952Z,4.70
2023-04-25T20:59:50.903Z,6.97
2023-04-25T21:02:27.312Z,2.37
2023-04-25T21:04:54.744Z,5.00
2023-04-25T21:07:22.294Z,3.77
2023-04-25T21:09:50.630Z,7.93
2023-04-25T21:12:17.950Z,1.93
2023-04-25T21:14:47.482Z,3.83
2023-04-25T21:17:14.837Z,3.33
2023-04-25T21:19:42.116Z,4.50
2023-04-25T21:22:09.606Z,2.70
2023-04-25T21:24:36.883Z,1.80
2023-04-25T21:27:09.023Z,5.73
2023-04-25T21:29:40.897Z,5.47
2023-04-25T21:32:08.893Z,3.77
2023-04-25T21:34:42.312Z,5.60
2023-04-25T21:37:09.943Z,2.40
2023-04-25T21:39:37.195Z,9.00
2023-04-25T21:42:08.188Z,4.90
2023-04-25T21:44:39.531Z,3.43
2023-04-25T21:47:06.860Z,2.77
2023-04-25T21:49:34.868Z,4.00
2023-04-25T21:52:04.937Z,6.50
2023-04-25T21:54:33.404Z,3.37
2023-04-25T21:57:00.704Z,7.43
2023-04-25T21:59:28.202Z,5.50
2023-04-25T22:01:56.579Z,5.97
2023-04-25T22:04:24.136Z,7.67
2023-04-25T22:06:52.146Z,4.83
2023-04-25T22:09:19.405Z,3.10
2023-04-25T22:11:47.220Z,3.00
2023-04-25T22:14:28.866Z,8.23
2023-04-25T22:16:56.101Z,5.87
2023-04-25T22:19:31.772Z,3.30
2023-04-25T22:21:59.735Z,4.97
2023-04-25T22:24:29.086Z,7.17
2023-04-25T22:27:05.326Z,4.67
2023-04-25T22:29:33.384Z,3.07
2023-04-25T22:32:00.836Z,6.40
2023-04-25T22:34:28.133Z,7.20
2023-04-25T22:36:55.622Z,5.00
2023-04-25T22:39:23.622Z,3.37
2023-04-25T22:41:51.012Z,7.33
2023-04-25T22:44:18.802Z,8.17
2023-04-25T22:46:46.716Z,2.83
2023-04-25T22:49:13.898Z,6.00
2023-04-25T22:51:41.450Z,4.50
2023-04-25T22:54:09.007Z,18.20
2023-04-25T22:56:37.039Z,3.77
2023-04-25T22:59:04.302Z,3.47
2023-04-25T23:01:31.768Z,6.03
2023-04-25T23:03:59.398Z,8.17
2023-04-25T23:06:27.221Z,7.77
2023-04-25T23:08:54.686Z,6.43
2023-04-25T23:11:23.027Z,5.30
2023-04-25T23:13:50.918Z,6.13
2023-04-25T23:16:18.135Z,2.20
2023-04-25T23:18:45.829Z,7.50
2023-04-25T23:21:13.031Z,5.20
2023-04-25T23:23:40.290Z,7.10
2023-04-25T23:26:08.229Z,2.40
2023-04-25T23:28:36.903Z,4.27
2023-04-25T23:31:06.134Z,6.13
2023-04-25T23:33:33.488Z,4.57
2023-04-25T23:36:01.042Z,6.73
2023-04-25T23:38:28.334Z,4.43
2023-04-25T23:40:55.694Z,9.87
2023-04-25T23:43:22.980Z,5.87
2023-04-25T23:45:50.400Z,2.27
2023-04-25T23:48:18.336Z,6.23
2023-04-25T23:50:45.633Z,5.07
2023-04-25T23:53:12.849Z,3.17
2023-04-25T23:55:40.225Z,4.80
2023-04-25T23:58:07.508Z,9.03
